createdAt,value
2023-02-24T00:00:13.722Z,1012.72
2023-02-24T00:01:13.758Z,1012.7
2023-02-24T00:02:13.777Z,1012.61
2023-02-24T00:03:13.851Z,1012.66
2023-02-24T00:04:13.735Z,1012.59
2023-02-24T00:05:13.744Z,1012.56
2023-02-24T00:06:13.749Z,-192.1
2023-02-24T00:07:13.737Z,-192.1
2023-02-24T00:08:13.744Z,-192.1
2023-02-24T00:09:13.732Z,-192.1
2023-02-24T00:10:13.724Z,1012.5
2023-02-24T00:11:13.762Z,1012.42
2023-02-24T00:12:13.754Z,1012.41
2023-02-24T00:13:13.733Z,1012.4
2023-02-24T00:14:13.738Z,1012.42
2023-02-24T00:15:13.727Z,1012.43
2023-02-24T00:16:13.959Z,1012.38
2023-02-24T00:17:13.818Z,1012.41
2023-02-24T00:18:13.742Z,1012.41
2023-02-24T00:19:13.732Z,1012.41
2023-02-24T00:20:13.743Z,1012.37
2023-02-24T00:21:13.782Z,1012.36
2023-02-24T00:22:13.758Z,1012.41
2023-02-24T00:23:13.750Z,1012.35
2023-02-24T00:24:13.730Z,1012.4
2023-02-24T00:25:13.727Z,1012.37
2023-02-24T00:26:13.750Z,1012.36
2023-02-24T00:27:13.738Z,1012.38
2023-02-24T00:28:13.730Z,1012.4
2023-02-24T00:29:13.735Z,1012.38
2023-02-24T00:30:13.717Z,1012.45
2023-02-24T00:31:13.852Z,1012.36
2023-02-24T00:32:13.999Z,1012.37
2023-02-24T00:33:13.729Z,1012.37
2023-02-24T00:34:13.738Z,1012.35
2023-02-24T00:35:13.737Z,1012.35
2023-02-24T00:36:13.758Z,1012.34
2023-02-24T00:37:13.750Z,1012.37
2023-02-24T00:38:13.743Z,1012.33
2023-02-24T00:39:13.760Z,1012.4
2023-02-24T00:40:13.733Z,1012.36
2023-02-24T00:41:13.759Z,1012.35
2023-02-24T00:42:13.744Z,1012.37
2023-02-24T00:43:13.739Z,1012.36
2023-02-24T00:44:13.740Z,1012.38
2023-02-24T00:45:13.740Z,1012.37
2023-02-24T00:46:13.783Z,1012.37
2023-02-24T00:47:13.782Z,1012.36
2023-02-24T00:48:13.744Z,1012.38
2023-02-24T00:49:13.739Z,1012.38
2023-02-24T00:50:13.742Z,1012.34
2023-02-24T00:51:13.761Z,1012.37
2023-02-24T00:52:13.829Z,1012.33
2023-02-24T00:53:13.739Z,1012.35
2023-02-24T00:54:13.737Z,1012.38
2023-02-24T00:55:13.749Z,1012.33
2023-02-24T00:56:13.769Z,1012.34
2023-02-24T00:57:13.745Z,1012.38
2023-02-24T00:58:13.750Z,1012.32
2023-02-24T00:59:13.739Z,1012.3
2023-02-24T01:00:13.744Z,1012.33
2023-02-24T01:01:13.797Z,1012.34
2023-02-24T01:02:13.759Z,1012.35
2023-02-24T01:03:13.752Z,1012.31
2023-02-24T01:04:13.802Z,1012.31
2023-02-24T01:05:13.751Z,1012.3
2023-02-24T01:06:13.755Z,1012.26
2023-02-24T01:07:13.743Z,1012.26
2023-02-24T01:08:13.749Z,1012.27
2023-02-24T01:09:13.753Z,1012.27
2023-02-24T01:10:13.740Z,1012.27
2023-02-24T01:11:13.753Z,1012.27
2023-02-24T01:12:13.785Z,1012.25
2023-02-24T01:13:13.743Z,1012.27
2023-02-24T01:14:13.742Z,1012.25
2023-02-24T01:15:13.759Z,1012.21
2023-02-24T01:16:13.778Z,1012.26
2023-02-24T01:17:13.767Z,1012.2
2023-02-24T01:18:13.747Z,1012.21
2023-02-24T01:19:13.736Z,1012.24
2023-02-24T01:20:13.743Z,1012.15
2023-02-24T01:21:13.749Z,1012.19
2023-02-24T01:22:13.751Z,1012.17
2023-02-24T01:23:13.742Z,1012.12
2023-02-24T01:24:13.754Z,1012.15
2023-02-24T01:25:13.747Z,1012.15
2023-02-24T01:26:13.749Z,1012.14
2023-02-24T01:27:13.744Z,1012.12
2023-02-24T01:28:13.752Z,1012.11
2023-02-24T01:29:13.733Z,1012.05
2023-02-24T01:30:13.731Z,1012.05
2023-02-24T01:31:13.820Z,1012
2023-02-24T01:32:13.922Z,1011.98
2023-02-24T01:33:13.816Z,1011.99
2023-02-24T01:34:13.746Z,1011.95
2023-02-24T01:35:13.736Z,1011.98
2023-02-24T01:36:13.757Z,1011.98
2023-02-24T01:37:13.766Z,1011.99
2023-02-24T01:38:13.747Z,1011.98
2023-02-24T01:39:13.746Z,1011.98
2023-02-24T01:40:13.754Z,1011.95
2023-02-24T01:41:13.761Z,1011.89
2023-02-24T01:42:13.738Z,1011.91
2023-02-24T01:43:13.740Z,1011.94
2023-02-24T01:44:13.753Z,1011.87
2023-02-24T01:45:13.762Z,1011.87
2023-02-24T01:46:13.859Z,1011.94
2023-02-24T01:47:13.754Z,1011.88
2023-02-24T01:48:13.749Z,1011.85
2023-02-24T01:49:13.759Z,1011.83
2023-02-24T01:50:13.747Z,1011.8
2023-02-24T01:51:13.777Z,1011.83
2023-02-24T01:52:13.744Z,1011.8
2023-02-24T01:53:13.740Z,1011.77
2023-02-24T01:54:13.767Z,1011.74
2023-02-24T01:55:13.751Z,1011.74
2023-02-24T01:56:13.761Z,1011.73
2023-02-24T01:57:13.763Z,1011.73
2023-02-24T01:58:13.744Z,1011.72
2023-02-24T01:59:13.748Z,1011.71
2023-02-24T02:00:13.747Z,1011.71
2023-02-24T02:01:13.763Z,1011.66
2023-02-24T02:02:13.879Z,1011.65
2023-02-24T02:03:13.755Z,1011.68
2023-02-24T02:04:13.747Z,1011.68
2023-02-24T02:05:13.757Z,1011.64
2023-02-24T02:06:13.766Z,1011.65
2023-02-24T02:07:13.754Z,1011.66
2023-02-24T02:08:13.750Z,1011.66
2023-02-24T02:09:13.745Z,1011.66
2023-02-24T02:10:13.762Z,1011.6
2023-02-24T02:11:13.788Z,1011.63
2023-02-24T02:12:13.753Z,1011.61
2023-02-24T02:13:13.748Z,1011.64
2023-02-24T02:14:13.737Z,1011.6
2023-02-24T02:15:13.754Z,1011.62
2023-02-24T02:16:13.977Z,1011.57
2023-02-24T02:17:13.760Z,1011.61
2023-02-24T02:18:13.749Z,1011.58
2023-02-24T02:19:13.756Z,1011.57
2023-02-24T02:20:13.777Z,1011.54
2023-02-24T02:21:13.788Z,1011.49
2023-02-24T02:22:13.769Z,1011.44
2023-02-24T02:23:13.791Z,1011.37
2023-02-24T02:24:13.753Z,1011.36
2023-02-24T02:25:13.759Z,1011.36
2023-02-24T02:26:13.770Z,1011.36
2023-02-24T02:27:13.745Z,1011.33
2023-02-24T02:28:13.759Z,1011.32
2023-02-24T02:29:13.785Z,1011.28
2023-02-24T02:30:13.738Z,1011.29
2023-02-24T02:31:13.881Z,1011.3
2023-02-24T02:32:13.901Z,1011.34
2023-02-24T02:33:13.748Z,1011.32
2023-02-24T02:34:13.745Z,1011.38
2023-02-24T02:35:13.755Z,1011.35
2023-02-24T02:36:13.771Z,1011.34
2023-02-24T02:37:13.761Z,1011.35
2023-02-24T02:38:13.747Z,1011.31
2023-02-24T02:39:13.756Z,1011.29
2023-02-24T02:40:13.754Z,1011.3
2023-02-24T02:41:13.763Z,1011.27
2023-02-24T02:42:13.745Z,1011.26
2023-02-24T02:43:13.749Z,1011.2
2023-02-24T02:44:13.761Z,1011.24
2023-02-24T02:45:13.761Z,1011.19
2023-02-24T02:46:13.833Z,1011.24
2023-02-24T02:47:13.760Z,1011.17
2023-02-24T02:48:13.774Z,1011.21
2023-02-24T02:49:13.750Z,1011.21
2023-02-24T02:50:13.753Z,1011.22
2023-02-24T02:51:13.760Z,1011.24
2023-02-24T02:52:13.776Z,1011.25
2023-02-24T02:53:13.748Z,1011.26
2023-02-24T02:54:13.802Z,1011.26
2023-02-24T02:55:13.745Z,1011.24
2023-02-24T02:56:13.792Z,1011.24
2023-02-24T02:57:13.744Z,1011.2
2023-02-24T02:58:13.750Z,1011.24
2023-02-24T02:59:13.750Z,1011.28
2023-02-24T03:00:13.744Z,1011.27
2023-02-24T03:01:13.802Z,1011.25
2023-02-24T03:02:13.770Z,1011.21
2023-02-24T03:03:13.746Z,1011.22
2023-02-24T03:04:13.747Z,1011.16
2023-02-24T03:05:13.747Z,1011.17
2023-02-24T03:06:13.760Z,1011.11
2023-02-24T03:07:13.749Z,1011.14
2023-02-24T03:08:13.752Z,1011.12
2023-02-24T03:09:13.748Z,1011.12
2023-02-24T03:10:13.745Z,1011.14
2023-02-24T03:11:13.753Z,1011.11
2023-02-24T03:12:13.739Z,1011.13
2023-02-24T03:13:13.741Z,1011.12
2023-02-24T03:14:13.745Z,1011.09
2023-02-24T03:15:13.740Z,1011.1
2023-02-24T03:16:13.790Z,1011.07
2023-02-24T03:17:13.751Z,1011.13
2023-02-24T03:18:13.739Z,1011.05
2023-02-24T03:19:13.754Z,1011.09
2023-02-24T03:20:13.748Z,1011.09
2023-02-24T03:21:13.749Z,1011.06
2023-02-24T03:22:13.757Z,1011.09
2023-02-24T03:23:13.749Z,1011.11
2023-02-24T03:24:13.751Z,1011.11
2023-02-24T03:25:13.745Z,1011.08
2023-02-24T03:26:13.753Z,1011.1
2023-02-24T03:27:13.755Z,1011.08
2023-02-24T03:28:13.756Z,1011.08
2023-02-24T03:29:13.753Z,1011.09
2023-02-24T03:30:13.729Z,1011.07
2023-02-24T03:31:13.855Z,1011.04
2023-02-24T03:32:13.900Z,1011.06
2023-02-24T03:33:13.750Z,1010.99
2023-02-24T03:34:13.754Z,1010.99
2023-02-24T03:35:13.739Z,1011.02
2023-02-24T03:36:13.758Z,1011.02
2023-02-24T03:37:13.748Z,1011.03
2023-02-24T03:38:13.746Z,1011.02
2023-02-24T03:39:13.748Z,1011.04
2023-02-24T03:40:13.743Z,1011.02
2023-02-24T03:41:13.758Z,1011.01
2023-02-24T03:42:13.750Z,1011.02
2023-02-24T03:43:16.028Z,1010.99
2023-02-24T03:44:13.735Z,1010.96
2023-02-24T03:45:13.749Z,1010.96
2023-02-24T03:46:13.889Z,1010.97
2023-02-24T03:47:13.758Z,1010.93
2023-02-24T03:48:13.750Z,1010.91
2023-02-24T03:49:13.735Z,1010.9
2023-02-24T03:50:13.789Z,1010.88
2023-02-24T03:51:13.773Z,1010.87
2023-02-24T03:52:13.750Z,1010.87
2023-02-24T03:53:13.751Z,1010.84
2023-02-24T03:54:13.760Z,1010.85
2023-02-24T03:55:13.740Z,1010.88
2023-02-24T03:56:13.760Z,1010.85
2023-02-24T03:57:13.745Z,1010.84
2023-02-24T03:58:13.759Z,1010.83
2023-02-24T03:59:13.744Z,1010.78
2023-02-24T04:00:13.730Z,1010.78
2023-02-24T04:01:13.760Z,1010.82
2023-02-24T04:02:13.833Z,1010.81
2023-02-24T04:03:13.755Z,1010.83
2023-02-24T04:04:13.747Z,1010.83
2023-02-24T04:05:13.766Z,1010.8
2023-02-24T04:06:13.767Z,1010.84
2023-02-24T04:07:13.746Z,1010.8
2023-02-24T04:08:13.748Z,1010.79
2023-02-24T04:09:13.750Z,1010.79
2023-02-24T04:10:13.741Z,1010.77
2023-02-24T04:11:13.754Z,1010.81
2023-02-24T04:12:13.873Z,1010.78
2023-02-24T04:13:13.745Z,1010.75
2023-02-24T04:14:13.727Z,1010.75
2023-02-24T04:15:13.746Z,1010.75
2023-02-24T04:16:13.793Z,1010.77
2023-02-24T04:17:13.760Z,1010.77
2023-02-24T04:18:13.763Z,1010.82
2023-02-24T04:19:13.733Z,1010.78
2023-02-24T04:20:13.754Z,1010.78
2023-02-24T04:21:13.774Z,1010.85
2023-02-24T04:22:13.745Z,1010.78
2023-02-24T04:23:13.744Z,1010.78
2023-02-24T04:24:13.760Z,1010.79
2023-02-24T04:25:13.890Z,1010.72
2023-02-24T04:26:13.764Z,1010.79
2023-02-24T04:27:13.782Z,1010.75
2023-02-24T04:28:13.750Z,1010.74
2023-02-24T04:29:13.745Z,1010.69
2023-02-24T04:30:13.739Z,1010.63
2023-02-24T04:31:13.855Z,1010.66
2023-02-24T04:32:13.957Z,1010.57
2023-02-24T04:33:13.749Z,1010.57
2023-02-24T04:34:13.758Z,1010.57
2023-02-24T04:35:13.737Z,1010.59
2023-02-24T04:36:13.758Z,1010.5
2023-02-24T04:37:13.767Z,1010.49
2023-02-24T04:38:13.748Z,1010.54
2023-02-24T04:39:13.764Z,1010.52
2023-02-24T04:40:13.751Z,1010.48
2023-02-24T04:41:13.753Z,1010.52
2023-02-24T04:42:13.753Z,1010.49
2023-02-24T04:43:13.745Z,1010.45
2023-02-24T04:44:13.750Z,1010.47
2023-02-24T04:45:13.737Z,1010.44
2023-02-24T04:46:13.764Z,1010.42
2023-02-24T04:47:13.756Z,1010.46
2023-02-24T04:48:13.751Z,1010.42
2023-02-24T04:49:13.742Z,1010.39
2023-02-24T04:50:13.747Z,1010.42
2023-02-24T04:51:13.831Z,1010.43
2023-02-24T04:52:13.738Z,1010.43
2023-02-24T04:53:13.753Z,1010.34
2023-02-24T04:54:13.752Z,1010.34
2023-02-24T04:55:13.738Z,1010.35
2023-02-24T04:56:13.748Z,1010.27
2023-02-24T04:57:13.746Z,1010.31
2023-02-24T04:58:13.751Z,1010.28
2023-02-24T04:59:13.745Z,1010.25
2023-02-24T05:00:13.725Z,1010.29
2023-02-24T05:01:13.760Z,1010.23
2023-02-24T05:02:13.758Z,1010.21
2023-02-24T05:03:13.750Z,1010.23
2023-02-24T05:04:13.827Z,1010.27
2023-02-24T05:05:13.747Z,1010.31
2023-02-24T05:06:13.761Z,1010.28
2023-02-24T05:07:13.747Z,1010.27
2023-02-24T05:08:13.748Z,1010.24
2023-02-24T05:09:13.746Z,1010.24
2023-02-24T05:10:13.737Z,1010.21
2023-02-24T05:11:13.756Z,1010.19
2023-02-24T05:12:13.747Z,1010.17
2023-02-24T05:13:13.751Z,1010.16
2023-02-24T05:14:13.758Z,1010.17
2023-02-24T05:15:13.755Z,1010.14
2023-02-24T05:16:13.810Z,1010.12
2023-02-24T05:17:13.776Z,1010.12
2023-02-24T05:18:13.746Z,1010.15
2023-02-24T05:19:14.212Z,1010.09
2023-02-24T05:20:13.758Z,1010.12
2023-02-24T05:21:13.758Z,1010.12
2023-02-24T05:22:13.753Z,1010.09
2023-02-24T05:23:13.784Z,1010.09
2023-02-24T05:24:13.755Z,1010.03
2023-02-24T05:25:13.777Z,1010.01
2023-02-24T05:26:13.779Z,1010.02
2023-02-24T05:27:13.745Z,1010.01
2023-02-24T05:28:13.755Z,1010.01
2023-02-24T05:29:13.757Z,1010.05
2023-02-24T05:30:13.759Z,1010.03
2023-02-24T05:31:13.935Z,1010.04
2023-02-24T05:32:13.860Z,1010.01
2023-02-24T05:33:13.746Z,1010.01
2023-02-24T05:34:13.747Z,1010.03
2023-02-24T05:35:13.756Z,1010.02
2023-02-24T05:36:13.760Z,1010.05
2023-02-24T05:37:13.750Z,1010.08
2023-02-24T05:38:13.756Z,1010.04
2023-02-24T05:39:13.739Z,1010.02
2023-02-24T05:40:13.764Z,1010.02
2023-02-24T05:41:13.764Z,1010.03
2023-02-24T05:42:13.746Z,1010.01
2023-02-24T05:43:13.744Z,1009.99
2023-02-24T05:44:13.765Z,1010
2023-02-24T05:45:13.753Z,1010.03
2023-02-24T05:46:13.803Z,1010
2023-02-24T05:47:13.761Z,1010
2023-02-24T05:48:13.741Z,1009.99
2023-02-24T05:49:13.746Z,1009.94
2023-02-24T05:50:13.737Z,1009.98
2023-02-24T05:51:13.762Z,1009.97
2023-02-24T05:52:13.745Z,1009.97
2023-02-24T05:53:13.781Z,1009.93
2023-02-24T05:54:13.741Z,1009.99
2023-02-24T05:55:13.737Z,1009.98
2023-02-24T05:56:13.750Z,1009.93
2023-02-24T05:57:13.764Z,1009.97
2023-02-24T05:58:13.752Z,1009.96
2023-02-24T05:59:13.738Z,1009.95
2023-02-24T06:00:13.729Z,1009.96
2023-02-24T06:01:13.751Z,1010.01
2023-02-24T06:02:13.836Z,1010.06
2023-02-24T06:03:13.791Z,1010.13
2023-02-24T06:04:13.738Z,1010.1
2023-02-24T06:05:13.751Z,1010.12
2023-02-24T06:06:13.754Z,1010.13
2023-02-24T06:07:13.957Z,1010.14
2023-02-24T06:08:13.741Z,1010.13
2023-02-24T06:09:13.740Z,1010.11
2023-02-24T06:10:13.736Z,1010.12
2023-02-24T06:11:13.753Z,1010.11
2023-02-24T06:12:13.775Z,1010.13
2023-02-24T06:13:13.777Z,1010.14
2023-02-24T06:14:13.748Z,1010.15
2023-02-24T06:15:13.747Z,1010.14
2023-02-24T06:16:13.825Z,1010.17
2023-02-24T06:17:13.760Z,1010.18
2023-02-24T06:18:13.750Z,1010.18
2023-02-24T06:19:13.736Z,1010.14
2023-02-24T06:20:13.770Z,1010.15
2023-02-24T06:21:13.777Z,1010.19
2023-02-24T06:22:13.755Z,1010.19
2023-02-24T06:23:13.738Z,1010.19
2023-02-24T06:24:13.750Z,1010.15
2023-02-24T06:25:13.745Z,1010.11
2023-02-24T06:26:13.760Z,1010.1
2023-02-24T06:27:13.731Z,1010.09
2023-02-24T06:28:13.740Z,1010.09
2023-02-24T06:29:13.745Z,1010.08
2023-02-24T06:30:13.752Z,1010.03
2023-02-24T06:31:13.757Z,1010.06
2023-02-24T06:32:13.899Z,1010.1
2023-02-24T06:33:13.747Z,1010.11
2023-02-24T06:34:13.747Z,1010.15
2023-02-24T06:35:13.756Z,1010.18
2023-02-24T06:36:13.758Z,1010.1
2023-02-24T06:37:13.771Z,1010.09
2023-02-24T06:38:13.740Z,1010.06
2023-02-24T06:39:13.750Z,1010.03
2023-02-24T06:40:13.731Z,1010.06
2023-02-24T06:41:13.766Z,1010.04
2023-02-24T06:42:13.793Z,1010.09
2023-02-24T06:43:13.740Z,1010.08
2023-02-24T06:44:13.825Z,1010.13
2023-02-24T06:45:13.753Z,1010.11
2023-02-24T06:46:13.879Z,1010.13
2023-02-24T06:47:13.765Z,1010.08
2023-02-24T06:48:13.753Z,1010.05
2023-02-24T06:49:13.737Z,1010.02
2023-02-24T06:50:13.734Z,1010.02
2023-02-24T06:51:13.801Z,1009.98
2023-02-24T06:52:13.748Z,1009.95
2023-02-24T06:53:13.748Z,1009.95
2023-02-24T06:54:13.750Z,1009.96
2023-02-24T06:55:13.750Z,1009.92
2023-02-24T06:56:13.764Z,1009.92
2023-02-24T06:57:13.745Z,1009.94
2023-02-24T06:58:13.736Z,1009.95
2023-02-24T06:59:13.741Z,1009.87
2023-02-24T07:00:13.769Z,1009.93
2023-02-24T07:01:13.852Z,1009.92
2023-02-24T07:02:13.761Z,1009.9
2023-02-24T07:03:13.751Z,1009.91
2023-02-24T07:04:13.809Z,1009.93
2023-02-24T07:05:13.744Z,1009.94
2023-02-24T07:06:13.769Z,1009.89
2023-02-24T07:07:13.756Z,1009.91
2023-02-24T07:08:13.753Z,1009.89
2023-02-24T07:09:13.744Z,1009.93
2023-02-24T07:10:13.734Z,1009.93
2023-02-24T07:11:13.767Z,1009.95
2023-02-24T07:12:13.738Z,1009.94
2023-02-24T07:13:13.745Z,1009.97
2023-02-24T07:14:13.743Z,1009.93
2023-02-24T07:15:13.759Z,1009.93
2023-02-24T07:16:13.776Z,1009.92
2023-02-24T07:17:13.753Z,1009.87
2023-02-24T07:18:13.747Z,1009.92
2023-02-24T07:19:13.757Z,1009.91
2023-02-24T07:20:13.741Z,1009.93
2023-02-24T07:21:13.754Z,1009.9
2023-02-24T07:22:13.749Z,1009.92
2023-02-24T07:23:13.769Z,1009.92
2023-02-24T07:24:13.753Z,1009.95
2023-02-24T07:25:13.753Z,1009.94
2023-02-24T07:26:13.761Z,1009.94
2023-02-24T07:27:13.750Z,1009.92
2023-02-24T07:28:13.746Z,1009.93
2023-02-24T07:29:13.759Z,1009.88
2023-02-24T07:30:13.739Z,-192.1
2023-02-24T07:31:13.865Z,0
2023-02-24T07:32:14.006Z,0
2023-02-24T07:33:13.733Z,0
2023-02-24T07:34:13.751Z,0
2023-02-24T07:35:13.758Z,0
2023-02-24T07:36:13.758Z,0
2023-02-24T07:37:13.740Z,0
2023-02-24T07:38:13.745Z,0
2023-02-24T07:39:13.740Z,0
2023-02-24T07:40:13.730Z,0
2023-02-24T07:41:13.754Z,0
2023-02-24T07:42:13.783Z,0
2023-02-24T07:43:13.748Z,0
2023-02-24T07:44:13.754Z,0
2023-02-24T07:45:13.789Z,0
2023-02-24T07:46:13.755Z,0
2023-02-24T07:47:13.756Z,0
2023-02-24T07:48:13.744Z,0
2023-02-24T07:49:13.737Z,0
2023-02-24T07:50:13.760Z,0
2023-02-24T07:51:13.765Z,0
2023-02-24T07:52:13.779Z,0
2023-02-24T07:53:13.741Z,0
2023-02-24T07:54:13.734Z,0
2023-02-24T07:55:13.750Z,0
2023-02-24T07:56:13.773Z,0
2023-02-24T07:57:14.543Z,0
2023-02-24T07:58:13.757Z,0
2023-02-24T07:59:13.739Z,0
2023-02-24T08:00:14.604Z,0
2023-02-24T08:01:13.752Z,0
2023-02-24T08:02:14.007Z,0
2023-02-24T08:03:13.748Z,0
2023-02-24T08:04:13.739Z,0
2023-02-24T08:05:13.787Z,0
2023-02-24T08:06:13.749Z,0
2023-02-24T08:07:13.751Z,0
2023-02-24T08:08:13.743Z,0
2023-02-24T08:09:13.758Z,0
2023-02-24T08:10:13.755Z,0
2023-02-24T08:11:13.777Z,0
2023-02-24T08:12:13.748Z,0
2023-02-24T08:13:13.743Z,0
2023-02-24T08:14:13.758Z,0
2023-02-24T08:15:13.748Z,0
2023-02-24T08:16:13.799Z,0
2023-02-24T08:17:13.755Z,0
2023-02-24T08:18:13.741Z,0
2023-02-24T08:19:13.749Z,0
2023-02-24T08:20:13.805Z,0
2023-02-24T08:21:13.752Z,0
2023-02-24T08:22:13.744Z,0
2023-02-24T08:23:13.737Z,0
2023-02-24T08:24:13.763Z,1009.27
2023-02-24T08:25:13.755Z,1009.29
2023-02-24T08:26:13.802Z,1009.27
2023-02-24T08:27:13.737Z,1009.27
2023-02-24T08:28:13.745Z,1009.24
2023-02-24T08:29:13.761Z,1009.25
2023-02-24T08:30:13.729Z,1009.26
2023-02-24T08:31:13.832Z,1009.25
2023-02-24T08:32:13.842Z,1009.26
2023-02-24T08:33:13.740Z,1009.24
2023-02-24T08:34:13.814Z,1009.22
2023-02-24T08:35:13.759Z,1009.23
2023-02-24T08:36:13.755Z,1009.17
2023-02-24T08:37:13.739Z,1009.16
2023-02-24T08:38:13.743Z,1009.18
2023-02-24T08:39:13.744Z,1009.17
2023-02-24T08:40:13.736Z,1009.15
2023-02-24T08:41:13.758Z,1009.21
2023-02-24T08:42:13.745Z,1009.23
2023-02-24T08:43:13.748Z,1009.24
2023-02-24T08:44:13.743Z,1009.25
2023-02-24T08:45:13.746Z,1009.22
2023-02-24T08:46:14.033Z,1009.23
2023-02-24T08:47:13.761Z,1009.28
2023-02-24T08:48:13.764Z,1009.28
2023-02-24T08:49:13.734Z,1009.28
2023-02-24T08:50:13.731Z,1009.22
2023-02-24T08:51:13.805Z,1009.22
2023-02-24T08:52:13.788Z,1009.24
2023-02-24T08:53:13.753Z,1009.21
2023-02-24T08:54:13.746Z,1009.2
2023-02-24T08:55:13.742Z,1009.18
2023-02-24T08:56:13.770Z,1009.18
2023-02-24T08:57:13.752Z,1009.12
2023-02-24T08:58:13.753Z,1009.13
2023-02-24T08:59:13.752Z,1009.08
2023-02-24T09:00:13.741Z,1009.05
2023-02-24T09:01:13.790Z,1009.04
2023-02-24T09:02:13.788Z,1009.02
2023-02-24T09:03:13.756Z,1008.99
2023-02-24T09:04:13.755Z,1009
2023-02-24T09:05:14.691Z,1009
2023-02-24T09:06:13.762Z,1008.96
2023-02-24T09:07:13.763Z,1008.94
2023-02-24T09:08:13.768Z,1008.89
2023-02-24T09:09:13.754Z,1008.88
2023-02-24T09:10:13.740Z,1008.88
2023-02-24T09:11:13.756Z,1008.87
2023-02-24T09:12:13.756Z,1008.85
2023-02-24T09:13:13.759Z,1008.83
2023-02-24T09:14:25.920Z,1008.78
2023-02-24T09:15:13.746Z,1008.74
2023-02-24T09:16:13.775Z,1008.72
2023-02-24T09:17:13.769Z,1008.7
2023-02-24T09:18:13.753Z,1008.64
2023-02-24T09:19:13.751Z,1008.65
2023-02-24T09:20:13.749Z,1008.63
2023-02-24T09:21:13.768Z,1008.59
2023-02-24T09:22:20.964Z,1008.57
2023-02-24T09:23:13.749Z,1008.57
2023-02-24T09:24:16.601Z,1008.47
2023-02-24T09:25:13.809Z,1008.43
2023-02-24T09:26:13.761Z,1008.42
2023-02-24T09:27:13.753Z,1008.4
2023-02-24T09:28:13.829Z,1008.35
2023-02-24T09:29:13.758Z,1008.33
2023-02-24T09:30:13.739Z,1008.33
2023-02-24T09:31:13.900Z,1008.33
2023-02-24T09:32:13.973Z,1008.31
2023-02-24T09:33:13.905Z,1008.33
2023-02-24T09:34:13.745Z,1008.32
2023-02-24T09:35:13.749Z,1008.36
2023-02-24T09:36:13.768Z,1008.37
2023-02-24T09:37:13.744Z,1008.36
2023-02-24T09:38:13.745Z,1008.36
2023-02-24T09:39:13.749Z,1008.4
2023-02-24T09:40:13.737Z,1008.39
2023-02-24T09:41:18.688Z,1008.37
2023-02-24T09:42:13.752Z,1008.33
2023-02-24T09:43:13.745Z,1008.35
2023-02-24T09:44:13.750Z,1008.33
2023-02-24T09:45:13.745Z,1008.33
2023-02-24T09:46:13.963Z,1008.32
2023-02-24T09:47:13.829Z,1008.37
2023-02-24T09:48:14.386Z,1008.35
2023-02-24T09:49:13.756Z,1008.32
2023-02-24T09:50:13.731Z,1008.37
2023-02-24T09:51:13.782Z,1008.33
2023-02-24T09:52:13.754Z,1008.33
2023-02-24T09:53:13.756Z,1008.33
2023-02-24T09:54:13.749Z,1008.33
2023-02-24T09:55:13.814Z,-192.1
2023-02-24T09:56:13.764Z,-192.1
2023-02-24T09:57:13.782Z,-192.1
2023-02-24T09:58:13.751Z,-192.1
2023-02-24T09:59:13.750Z,-192.1
2023-02-24T10:00:13.738Z,-192.1
2023-02-24T10:01:13.784Z,-192.1
2023-02-24T10:02:13.800Z,-192.1
2023-02-24T10:03:13.746Z,-192.1
2023-02-24T10:04:20.620Z,-192.1
2023-02-24T10:05:13.759Z,-192.1
2023-02-24T10:06:13.755Z,-192.1
2023-02-24T10:07:13.756Z,0
2023-02-24T10:08:13.770Z,0
2023-02-24T10:09:13.752Z,0
2023-02-24T10:10:13.753Z,0
2023-02-24T10:11:13.785Z,0
2023-02-24T10:12:13.747Z,0
2023-02-24T10:13:13.893Z,0
2023-02-24T10:14:13.751Z,0
2023-02-24T10:15:13.749Z,0
2023-02-24T10:16:13.793Z,0
2023-02-24T10:17:13.760Z,0
2023-02-24T10:18:13.765Z,0
2023-02-24T10:19:13.757Z,0
2023-02-24T10:20:13.778Z,0
2023-02-24T10:21:13.799Z,0
2023-02-24T10:22:13.754Z,0
2023-02-24T10:23:13.752Z,0
2023-02-24T10:24:13.751Z,1007.9
2023-02-24T10:25:13.828Z,1007.85
2023-02-24T10:26:13.780Z,1007.83
2023-02-24T10:27:16.810Z,1007.79
2023-02-24T10:28:13.746Z,1007.8
2023-02-24T10:29:13.754Z,1007.73
2023-02-24T10:30:13.745Z,1007.79
2023-02-24T10:31:13.914Z,1007.69
2023-02-24T10:32:13.973Z,1007.69
2023-02-24T10:33:13.756Z,1007.7
2023-02-24T10:34:13.759Z,1007.68
2023-02-24T10:35:13.746Z,1007.64
2023-02-24T10:36:13.770Z,1007.65
2023-02-24T10:37:26.202Z,1007.61
2023-02-24T10:38:13.753Z,1007.58
2023-02-24T10:39:13.751Z,1007.54
2023-02-24T10:40:13.748Z,1007.54
2023-02-24T10:41:13.766Z,1007.46
2023-02-24T10:42:13.797Z,1007.45
2023-02-24T10:43:13.758Z,1007.43
2023-02-24T10:44:13.756Z,1007.38
2023-02-24T10:45:17.528Z,1007.36
2023-02-24T10:46:13.790Z,1007.35
2023-02-24T10:47:13.778Z,1007.25
2023-02-24T10:48:15.511Z,1007.26
2023-02-24T10:49:13.744Z,1007.17
2023-02-24T10:50:13.743Z,1007.15
2023-02-24T10:51:13.796Z,1007.12
2023-02-24T10:52:13.760Z,1007.15
2023-02-24T10:53:13.756Z,1007.14
2023-02-24T10:54:13.754Z,1007.09
2023-02-24T10:55:13.741Z,1007.11
2023-02-24T10:56:13.816Z,1007.05
2023-02-24T10:57:13.744Z,1007.06
2023-02-24T10:58:13.750Z,1007.02
2023-02-24T10:59:13.804Z,1007
2023-02-24T11:00:13.763Z,1007.03
2023-02-24T11:01:13.882Z,1007.06
2023-02-24T11:02:13.855Z,1007.05
2023-02-24T11:03:19.485Z,1006.99
2023-02-24T11:04:13.758Z,1006.98
2023-02-24T11:05:13.753Z,1006.99
2023-02-24T11:06:13.766Z,1006.91
2023-02-24T11:07:13.750Z,1006.91
2023-02-24T11:08:13.752Z,1006.86
2023-02-24T11:09:13.750Z,1006.78
2023-02-24T11:10:13.849Z,1006.74
2023-02-24T11:11:13.751Z,1006.76
2023-02-24T11:12:13.745Z,1006.68
2023-02-24T11:13:13.758Z,1006.68
2023-02-24T11:14:13.749Z,1006.66
2023-02-24T11:15:13.750Z,1006.59
2023-02-24T11:16:13.860Z,1006.54
2023-02-24T11:17:13.754Z,1006.56
2023-02-24T11:18:13.747Z,1006.52
2023-02-24T11:19:13.743Z,1006.48
2023-02-24T11:20:13.749Z,1006.44
2023-02-24T11:21:13.760Z,1006.41
2023-02-24T11:22:13.754Z,1006.44
2023-02-24T11:23:13.761Z,1006.44
2023-02-24T11:24:13.752Z,1006.42
2023-02-24T11:25:13.767Z,1006.41
2023-02-24T11:26:13.756Z,1006.43
2023-02-24T11:27:13.743Z,1006.38
2023-02-24T11:28:13.747Z,1006.31
2023-02-24T11:29:13.755Z,1006.28
2023-02-24T11:30:13.740Z,1006.28
2023-02-24T11:31:13.922Z,1006.26
2023-02-24T11:32:15.542Z,1006.22
2023-02-24T11:33:13.742Z,1006.18
2023-02-24T11:34:13.868Z,1006.21
2023-02-24T11:35:13.836Z,1006.17
2023-02-24T11:36:14.422Z,1006.18
2023-02-24T11:37:14.048Z,1006.18
2023-02-24T11:38:13.965Z,1006.14
2023-02-24T11:39:20.473Z,1006.07
2023-02-24T11:40:13.726Z,1006.12
2023-02-24T11:41:13.782Z,1006.05
2023-02-24T11:42:13.749Z,1006.06
2023-02-24T11:43:13.901Z,1006.1
2023-02-24T11:44:15.132Z,1006.07
2023-02-24T11:45:13.848Z,1006
2023-02-24T11:46:13.774Z,1006.04
2023-02-24T11:47:13.766Z,1005.97
2023-02-24T11:48:13.751Z,1005.98
2023-02-24T11:49:13.745Z,1005.94
2023-02-24T11:50:13.745Z,1005.91
2023-02-24T11:51:13.919Z,1005.91
2023-02-24T11:52:13.761Z,1005.91
2023-02-24T11:53:13.761Z,1005.87
2023-02-24T11:54:13.754Z,1005.82
2023-02-24T11:55:13.746Z,1005.78
2023-02-24T11:56:13.752Z,1005.74
2023-02-24T11:57:13.757Z,1005.72
2023-02-24T11:58:13.751Z,1005.64
2023-02-24T11:59:13.750Z,1005.6
2023-02-24T12:00:13.748Z,1005.58
2023-02-24T12:01:13.762Z,1005.59
2023-02-24T12:02:13.762Z,1005.57
2023-02-24T12:03:13.838Z,0
2023-02-24T12:04:13.752Z,0
2023-02-24T12:05:13.744Z,0
2023-02-24T12:06:13.847Z,0
2023-02-24T12:07:13.746Z,0
2023-02-24T12:08:13.756Z,0
2023-02-24T12:09:13.757Z,0
2023-02-24T12:10:17.234Z,0
2023-02-24T12:11:13.757Z,0
2023-02-24T12:12:13.840Z,0
2023-02-24T12:13:13.750Z,0
2023-02-24T12:14:13.759Z,0
2023-02-24T12:15:13.753Z,0
2023-02-24T12:16:13.893Z,0
2023-02-24T12:17:13.756Z,0
2023-02-24T12:18:13.940Z,0
2023-02-24T12:19:13.765Z,0
2023-02-24T12:20:13.756Z,0
2023-02-24T12:21:13.759Z,0
2023-02-24T12:22:13.753Z,0
2023-02-24T12:23:13.746Z,0
2023-02-24T12:24:13.783Z,1005.12